sensor_id;sensor_type;location;lat;lon;timestamp;pressure;altitude;pressure_sealevel;temperature;humidity
64340;BME280;63709;53.258;-8.814;2024-03-25T00:00:23;99608.88;;;14.41;100.00
64340;BME280;63709;53.258;-8.814;2024-03-25T00:02:50;99603.00;;;14.37;100.00
64340;BME280;63709;53.258;-8.814;2024-03-25T00:05:16;99603.31;;;14.34;100.00
64340;BME280;63709;53.258;-8.814;2024-03-25T00:07:47;99574.50;;;14.12;100.00
64340;BME280;63709;53.258;-8.814;2024-03-25T00:10:12;99595.47;;;14.24;100.00
64340;BME280;63709;53.258;-8.814;2024-03-25T00:12:37;99591.41;;;14.37;100.00
64340;BME280;63709;53.258;-8.814;2024-03-25T00:15:03;99588.56;;;14.30;100.00
64340;BME280;63709;53.258;-8.814;2024-03-25T00:17:29;99591.78;;;14.25;100.00
64340;BME280;63709;53.258;-8.814;2024-03-25T00:19:54;99586.06;;;14.37;100.00
64340;BME280;63709;53.258;-8.814;2024-03-25T00:22:20;99571.97;;;14.26;100.00
64340;BME280;63709;53.258;-8.814;2024-03-25T00:24:46;99570.94;;;14.44;100.00
64340;BME280;63709;53.258;-8.814;2024-03-25T00:27:11;99563.63;;;14.13;100.00
64340;BME280;63709;53.258;-8.814;2024-03-25T00:29:37;99557.72;;;14.26;100.00
64340;BME280;63709;53.258;-8.814;2024-03-25T00:32:02;99556.38;;;14.30;100.00
64340;BME280;63709;53.258;-8.814;2024-03-25T00:34:28;99547.34;;;14.07;100.00
64340;BME280;63709;53.258;-8.814;2024-03-25T00:36:53;99534.75;;;14.07;100.00
64340;BME280;63709;53.258;-8.814;2024-03-25T00:39:18;99534.06;;;14.21;100.00
64340;BME280;63709;53.258;-8.814;2024-03-25T00:41:44;99523.31;;;14.29;100.00
64340;BME280;63709;53.258;-8.814;2024-03-25T00:44:09;99524.19;;;14.22;100.00
64340;BME280;63709;53.258;-8.814;2024-03-25T00:46:35;99524.50;;;14.19;100.00
64340;BME280;63709;53.258;-8.814;2024-03-25T00:49:00;99520.66;;;14.21;100.00
64340;BME280;63709;53.258;-8.814;2024-03-25T00:51:26;99515.75;;;14.33;100.00
64340;BME280;63709;53.258;-8.814;2024-03-25T00:53:51;99516.31;;;14.20;100.00
64340;BME280;63709;53.258;-8.814;2024-03-25T00:56:17;99508.13;;;14.06;100.00
64340;BME280;63709;53.258;-8.814;2024-03-25T00:58:42;99506.41;;;14.21;100.00
64340;BME280;63709;53.258;-8.814;2024-03-25T01:01:07;99495.19;;;14.17;100.00
64340;BME280;63709;53.258;-8.814;2024-03-25T01:03:33;99486.94;;;14.19;100.00
64340;BME280;63709;53.258;-8.814;2024-03-25T01:05:59;99481.25;;;14.14;100.00
64340;BME280;63709;53.258;-8.814;2024-03-25T01:08:24;99470.19;;;14.09;100.00
64340;BME280;63709;53.258;-8.814;2024-03-25T01:10:49;99475.72;;;14.15;100.00
64340;BME280;63709;53.258;-8.814;2024-03-25T01:13:15;99471.34;;;14.22;100.00
64340;BME280;63709;53.258;-8.814;2024-03-25T01:15:41;99464.97;;;14.15;100.00
64340;BME280;63709;53.258;-8.814;2024-03-25T01:18:07;99454.75;;;14.19;100.00
64340;BME280;63709;53.258;-8.814;2024-03-25T01:20:32;99455.56;;;14.19;100.00
64340;BME280;63709;53.258;-8.814;2024-03-25T01:22:57;99439.34;;;14.13;100.00
64340;BME280;63709;53.258;-8.814;2024-03-25T01:25:23;99437.84;;;14.10;100.00
64340;BME280;63709;53.258;-8.814;2024-03-25T01:27:48;99420.41;;;14.06;100.00
64340;BME280;63709;53.258;-8.814;2024-03-25T01:30:13;99424.06;;;14.21;100.00
64340;BME280;63709;53.258;-8.814;2024-03-25T01:32:39;99420.03;;;14.17;100.00
64340;BME280;63709;53.258;-8.814;2024-03-25T01:35:05;99409.47;;;14.24;100.00
64340;BME280;63709;53.258;-8.814;2024-03-25T01:37:30;99403.88;;;14.34;100.00
64340;BME280;63709;53.258;-8.814;2024-03-25T01:39:56;99404.53;;;14.36;100.00
64340;BME280;63709;53.258;-8.814;2024-03-25T01:42:21;99403.06;;;14.25;100.00
64340;BME280;63709;53.258;-8.814;2024-03-25T01:44:46;99401.41;;;14.24;100.00
64340;BME280;63709;53.258;-8.814;2024-03-25T01:47:13;99396.69;;;14.26;100.00
64340;BME280;63709;53.258;-8.814;2024-03-25T01:49:39;99389.81;;;14.23;100.00
64340;BME280;63709;53.258;-8.814;2024-03-25T01:52:04;99396.34;;;14.29;100.00
64340;BME280;63709;53.258;-8.814;2024-03-25T01:54:31;99397.25;;;14.13;100.00
64340;BME280;63709;53.258;-8.814;2024-03-25T01:56:56;99395.94;;;14.09;100.00
64340;BME280;63709;53.258;-8.814;2024-03-25T01:59:22;99401.88;;;14.27;100.00
64340;BME280;63709;53.258;-8.814;2024-03-25T02:01:48;99391.50;;;14.24;100.00
64340;BME280;63709;53.258;-8.814;2024-03-25T02:04:13;99376.41;;;14.23;100.00
64340;BME280;63709;53.258;-8.814;2024-03-25T02:06:40;99385.00;;;14.11;100.00
64340;BME280;63709;53.258;-8.814;2024-03-25T02:09:06;99386.63;;;14.20;100.00
64340;BME280;63709;53.258;-8.814;2024-03-25T02:11:32;99376.66;;;14.06;100.00
64340;BME280;63709;53.258;-8.814;2024-03-25T02:13:57;99369.59;;;14.13;100.00
64340;BME280;63709;53.258;-8.814;2024-03-25T02:16:22;99361.72;;;14.03;100.00
64340;BME280;63709;53.258;-8.814;2024-03-25T02:18:48;99340.06;;;14.13;100.00
64340;BME280;63709;53.258;-8.814;2024-03-25T02:21:13;99342.75;;;14.13;100.00
64340;BME280;63709;53.258;-8.814;2024-03-25T02:23:38;99343.66;;;13.89;100.00
64340;BME280;63709;53.258;-8.814;2024-03-25T02:26:04;99333.94;;;13.96;100.00
64340;BME280;63709;53.258;-8.814;2024-03-25T02:28:29;99332.25;;;13.87;100.00
64340;BME280;63709;53.258;-8.814;2024-03-25T02:30:54;99330.06;;;13.90;100.00
64340;BME280;63709;53.258;-8.814;2024-03-25T02:33:20;99329.44;;;13.88;100.00
64340;BME280;63709;53.258;-8.814;2024-03-25T02:35:45;99320.66;;;14.02;100.00
64340;BME280;63709;53.258;-8.814;2024-03-25T02:38:11;99318.63;;;14.04;100.00
64340;BME280;63709;53.258;-8.814;2024-03-25T02:40:36;99309.94;;;14.02;100.00
64340;BME280;63709;53.258;-8.814;2024-03-25T02:43:02;99305.69;;;14.08;100.00
64340;BME280;63709;53.258;-8.814;2024-03-25T02:45:28;99301.00;;;14.10;100.00
64340;BME280;63709;53.258;-8.814;2024-03-25T02:47:53;99291.94;;;14.11;100.00
64340;BME280;63709;53.258;-8.814;2024-03-25T02:50:19;99294.00;;;14.01;100.00
64340;BME280;63709;53.258;-8.814;2024-03-25T02:52:44;99298.31;;;14.10;100.00
64340;BME280;63709;53.258;-8.814;2024-03-25T02:55:09;99283.06;;;14.11;100.00
64340;BME280;63709;53.258;-8.814;2024-03-25T02:57:34;99283.94;;;14.03;100.00
64340;BME280;63709;53.258;-8.814;2024-03-25T03:00:00;99269.78;;;14.17;100.00
64340;BME280;63709;53.258;-8.814;2024-03-25T03:02:25;99266.66;;;14.06;100.00
64340;BME280;63709;53.258;-8.814;2024-03-25T03:04:50;99272.75;;;14.22;100.00
64340;BME280;63709;53.258;-8.814;2024-03-25T03:07:16;99260.00;;;14.24;100.00
64340;BME280;63709;53.258;-8.814;2024-03-25T03:09:41;99260.09;;;14.08;100.00
64340;BME280;63709;53.258;-8.814;2024-03-25T03:12:07;99252.94;;;14.23;100.00
64340;BME280;63709;53.258;-8.814;2024-03-25T03:14:32;99248.44;;;14.24;100.00
64340;BME280;63709;53.258;-8.814;2024-03-25T03:16:57;99243.19;;;14.31;100.00
64340;BME280;63709;53.258;-8.814;2024-03-25T03:19:26;99234.72;;;14.19;100.00
64340;BME280;63709;53.258;-8.814;2024-03-25T03:21:51;99226.25;;;14.30;100.00
64340;BME280;63709;53.258;-8.814;2024-03-25T03:24:17;99222.06;;;14.27;100.00
64340;BME280;63709;53.258;-8.814;2024-03-25T03:26:43;99210.22;;;14.22;100.00
64340;BME280;63709;53.258;-8.814;2024-03-25T03:29:09;99203.75;;;14.31;100.00
64340;BME280;63709;53.258;-8.814;2024-03-25T03:31:34;99203.13;;;14.29;100.00
64340;BME280;63709;53.258;-8.814;2024-03-25T03:33:59;99199.59;;;14.28;100.00
64340;BME280;63709;53.258;-8.814;2024-03-25T03:36:24;99191.34;;;14.30;100.00
64340;BME280;63709;53.258;-8.814;2024-03-25T03:38:50;99195.22;;;14.27;100.00
64340;BME280;63709;53.258;-8.814;2024-03-25T03:41:16;99186.34;;;14.27;100.00
64340;BME280;63709;53.258;-8.814;2024-03-25T03:43:41;99178.84;;;14.22;100.00
64340;BME280;63709;53.258;-8.814;2024-03-25T03:46:06;99167.47;;;14.20;100.00
64340;BME280;63709;53.258;-8.814;2024-03-25T03:48:31;99166.13;;;14.16;100.00
64340;BME280;63709;53.258;-8.814;2024-03-25T03:50:57;99164.19;;;14.10;100.00
64340;BME280;63709;53.258;-8.814;2024-03-25T03:53:22;99160.75;;;14.16;100.00
64340;BME280;63709;53.258;-8.814;2024-03-25T03:55:57;99156.94;;;13.88;100.00
64340;BME280;63709;53.258;-8.814;2024-03-25T03:58:23;99155.59;;;13.92;100.00
64340;BME280;63709;53.258;-8.814;2024-03-25T04:00:49;99149.81;;;14.03;100.00
64340;BME280;63709;53.258;-8.814;2024-03-25T04:03:14;99144.09;;;13.83;100.00
64340;BME280;63709;53.258;-8.814;2024-03-25T04:05:40;99138.06;;;13.81;100.00
64340;BME280;63709;53.258;-8.814;2024-03-25T04:08:05;99131.53;;;13.75;100.00
64340;BME280;63709;53.258;-8.814;2024-03-25T04:10:30;99130.22;;;13.71;100.00
64340;BME280;63709;53.258;-8.814;2024-03-25T04:12:56;99121.00;;;13.74;100.00
64340;BME280;63709;53.258;-8.814;2024-03-25T04:15:21;99114.09;;;13.79;100.00
64340;BME280;63709;53.258;-8.814;2024-03-25T04:17:47;99113.97;;;13.73;100.00
64340;BME280;63709;53.258;-8.814;2024-03-25T04:20:14;99115.50;;;13.67;100.00
64340;BME280;63709;53.258;-8.814;2024-03-25T04:22:42;99108.47;;;13.66;100.00
64340;BME280;63709;53.258;-8.814;2024-03-25T04:25:08;99104.53;;;13.54;100.00
64340;BME280;63709;53.258;-8.814;2024-03-25T04:27:37;99101.03;;;13.53;100.00
64340;BME280;63709;53.258;-8.814;2024-03-25T04:30:03;99107.72;;;13.49;100.00
64340;BME280;63709;53.258;-8.814;2024-03-25T04:32:28;99106.00;;;13.65;100.00
64340;BME280;63709;53.258;-8.814;2024-03-25T04:34:54;99093.34;;;13.73;100.00
64340;BME280;63709;53.258;-8.814;2024-03-25T04:37:19;99089.50;;;13.76;100.00
64340;BME280;63709;53.258;-8.814;2024-03-25T04:39:45;99085.47;;;13.72;100.00
64340;BME280;63709;53.258;-8.814;2024-03-25T04:42:11;99083.28;;;13.75;100.00
64340;BME280;63709;53.258;-8.814;2024-03-25T04:44:37;99079.25;;;13.79;100.00
64340;BME280;63709;53.258;-8.814;2024-03-25T04:47:02;99079.72;;;13.83;100.00
64340;BME280;63709;53.258;-8.814;2024-03-25T04:49:27;99079.47;;;13.93;100.00
64340;BME280;63709;53.258;-8.814;2024-03-25T04:51:53;99082.00;;;13.94;100.00
64340;BME280;63709;53.258;-8.814;2024-03-25T04:54:19;99067.31;;;13.82;100.00
64340;BME280;63709;53.258;-8.814;2024-03-25T04:56:44;99062.63;;;13.84;100.00
64340;BME280;63709;53.258;-8.814;2024-03-25T04:59:10;99061.88;;;13.90;100.00
64340;BME280;63709;53.258;-8.814;2024-03-25T05:01:35;99063.16;;;13.79;100.00
64340;BME280;63709;53.258;-8.814;2024-03-25T05:04:01;99054.44;;;13.77;100.00
64340;BME280;63709;53.258;-8.814;2024-03-25T05:06:27;99055.41;;;13.85;100.00
64340;BME280;63709;53.258;-8.814;2024-03-25T05:08:52;99046.47;;;13.69;100.00
64340;BME280;63709;53.258;-8.814;2024-03-25T05:11:17;99047.09;;;13.71;100.00
64340;BME280;63709;53.258;-8.814;2024-03-25T05:13:42;99040.22;;;13.77;100.00
64340;BME280;63709;53.258;-8.814;2024-03-25T05:16:08;99042.28;;;13.90;100.00
64340;BME280;63709;53.258;-8.814;2024-03-25T05:18:33;99042.28;;;13.90;100.00
64340;BME280;63709;53.258;-8.814;2024-03-25T05:20:58;99033.16;;;13.99;100.00
64340;BME280;63709;53.258;-8.814;2024-03-25T05:23:24;99032.69;;;13.95;100.00
64340;BME280;63709;53.258;-8.814;2024-03-25T05:25:49;99025.94;;;13.99;100.00
64340;BME280;63709;53.258;-8.814;2024-03-25T05:28:14;99022.34;;;14.07;100.00
64340;BME280;63709;53.258;-8.814;2024-03-25T05:30:40;99023.47;;;14.13;100.00
64340;BME280;63709;53.258;-8.814;2024-03-25T05:33:05;99012.28;;;14.09;100.00
64340;BME280;63709;53.258;-8.814;2024-03-25T05:35:30;99010.50;;;14.16;100.00
64340;BME280;63709;53.258;-8.814;2024-03-25T05:37:58;99005.34;;;14.15;100.00
64340;BME280;63709;53.258;-8.814;2024-03-25T05:40:24;99006.53;;;14.12;100.00
64340;BME280;63709;53.258;-8.814;2024-03-25T05:42:49;98999.50;;;14.11;100.00
64340;BME280;63709;53.258;-8.814;2024-03-25T05:45:14;99000.53;;;14.10;100.00
64340;BME280;63709;53.258;-8.814;2024-03-25T05:47:40;98998.31;;;14.14;100.00
64340;BME280;63709;53.258;-8.814;2024-03-25T05:50:06;98985.47;;;14.09;100.00
64340;BME280;63709;53.258;-8.814;2024-03-25T05:52:33;98995.16;;;14.10;100.00
64340;BME280;63709;53.258;-8.814;2024-03-25T05:54:58;98992.59;;;14.17;100.00
64340;BME280;63709;53.258;-8.814;2024-03-25T05:57:23;98987.59;;;14.14;100.00
64340;BME280;63709;53.258;-8.814;2024-03-25T05:59:49;98981.44;;;14.05;100.00
64340;BME280;63709;53.258;-8.814;2024-03-25T06:02:14;98983.41;;;14.11;100.00
64340;BME280;63709;53.258;-8.814;2024-03-25T06:04:39;98986.34;;;14.16;100.00
64340;BME280;63709;53.258;-8.814;2024-03-25T06:07:05;98984.06;;;14.13;100.00
64340;BME280;63709;53.258;-8.814;2024-03-25T06:09:30;98980.72;;;14.11;100.00
64340;BME280;63709;53.258;-8.814;2024-03-25T06:11:56;98971.75;;;14.19;100.00
64340;BME280;63709;53.258;-8.814;2024-03-25T06:14:21;98968.91;;;14.20;100.00
64340;BME280;63709;53.258;-8.814;2024-03-25T06:16:46;98966.59;;;14.17;100.00
64340;BME280;63709;53.258;-8.814;2024-03-25T06:19:12;98966.38;;;14.19;100.00
64340;BME280;63709;53.258;-8.814;2024-03-25T06:21:37;98963.72;;;14.19;100.00
64340;BME280;63709;53.258;-8.814;2024-03-25T06:24:03;98961.22;;;14.17;100.00
64340;BME280;63709;53.258;-8.814;2024-03-25T06:26:28;98971.75;;;14.19;100.00
64340;BME280;63709;53.258;-8.814;2024-03-25T06:28:53;98956.47;;;14.19;100.00
64340;BME280;63709;53.258;-8.814;2024-03-25T06:31:19;98946.31;;;14.15;100.00
64340;BME280;63709;53.258;-8.814;2024-03-25T06:34:02;98951.13;;;14.19;100.00
64340;BME280;63709;53.258;-8.814;2024-03-25T06:36:42;98955.03;;;14.17;100.00
64340;BME280;63709;53.258;-8.814;2024-03-25T06:39:08;98949.34;;;13.97;100.00
64340;BME280;63709;53.258;-8.814;2024-03-25T06:41:34;98942.91;;;14.06;100.00
64340;BME280;63709;53.258;-8.814;2024-03-25T06:43:59;98932.63;;;14.10;100.00
64340;BME280;63709;53.258;-8.814;2024-03-25T06:46:24;98932.25;;;13.98;100.00
64340;BME280;63709;53.258;-8.814;2024-03-25T06:48:50;98921.13;;;14.01;100.00
64340;BME280;63709;53.258;-8.814;2024-03-25T06:51:17;98912.91;;;14.02;100.00
64340;BME280;63709;53.258;-8.814;2024-03-25T06:53:42;98914.38;;;13.90;100.00
64340;BME280;63709;53.258;-8.814;2024-03-25T06:56:08;98909.00;;;14.05;100.00
64340;BME280;63709;53.258;-8.814;2024-03-25T06:58:33;98903.38;;;13.85;100.00
64340;BME280;63709;53.258;-8.814;2024-03-25T07:01:03;98910.41;;;14.01;100.00
64340;BME280;63709;53.258;-8.814;2024-03-25T07:03:28;98910.13;;;13.96;100.00
64340;BME280;63709;53.258;-8.814;2024-03-25T07:05:54;98912.25;;;14.00;100.00
64340;BME280;63709;53.258;-8.814;2024-03-25T07:08:20;98916.81;;;14.15;100.00
64340;BME280;63709;53.258;-8.814;2024-03-25T07:10:46;98918.84;;;14.13;100.00
64340;BME280;63709;53.258;-8.814;2024-03-25T07:13:11;98922.91;;;14.09;100.00
64340;BME280;63709;53.258;-8.814;2024-03-25T07:15:37;98919.03;;;14.11;100.00
64340;BME280;63709;53.258;-8.814;2024-03-25T07:18:03;98913.56;;;14.19;100.00
64340;BME280;63709;53.258;-8.814;2024-03-25T07:20:29;98917.63;;;14.15;100.00
64340;BME280;63709;53.258;-8.814;2024-03-25T07:22:54;98918.91;;;14.19;100.00
64340;BME280;63709;53.258;-8.814;2024-03-25T07:25:20;98912.56;;;14.20;100.00
64340;BME280;63709;53.258;-8.814;2024-03-25T07:27:46;98915.97;;;14.29;100.00
64340;BME280;63709;53.258;-8.814;2024-03-25T07:30:11;98916.53;;;14.24;100.00
64340;BME280;63709;53.258;-8.814;2024-03-25T07:32:36;98925.22;;;14.26;100.00
64340;BME280;63709;53.258;-8.814;2024-03-25T07:35:02;98926.88;;;14.42;100.00
64340;BME280;63709;53.258;-8.814;2024-03-25T07:37:29;98924.28;;;14.49;100.00
64340;BME280;63709;53.258;-8.814;2024-03-25T07:39:55;98927.06;;;14.41;100.00
64340;BME280;63709;53.258;-8.814;2024-03-25T07:42:20;98929.84;;;14.47;100.00
64340;BME280;63709;53.258;-8.814;2024-03-25T07:44:45;98926.97;;;14.19;100.00
64340;BME280;63709;53.258;-8.814;2024-03-25T07:47:10;98935.13;;;14.11;100.00
64340;BME280;63709;53.258;-8.814;2024-03-25T07:49:36;98930.88;;;14.17;100.00
64340;BME280;63709;53.258;-8.814;2024-03-25T07:52:01;98927.72;;;14.13;100.00
64340;BME280;63709;53.258;-8.814;2024-03-25T07:54:26;98932.69;;;14.01;100.00
64340;BME280;63709;53.258;-8.814;2024-03-25T07:56:52;98935.34;;;13.72;100.00
64340;BME280;63709;53.258;-8.814;2024-03-25T07:59:17;98934.00;;;13.91;100.00
64340;BME280;63709;53.258;-8.814;2024-03-25T08:01:43;98925.28;;;13.74;100.00
64340;BME280;63709;53.258;-8.814;2024-03-25T08:04:08;98928.16;;;13.72;100.00
64340;BME280;63709;53.258;-8.814;2024-03-25T08:06:34;98915.06;;;13.54;100.00
64340;BME280;63709;53.258;-8.814;2024-03-25T08:08:59;98911.94;;;13.66;100.00
64340;BME280;63709;53.258;-8.814;2024-03-25T08:11:24;98920.47;;;13.69;100.00
64340;BME280;63709;53.258;-8.814;2024-03-25T08:13:49;98922.84;;;13.64;100.00
64340;BME280;63709;53.258;-8.814;2024-03-25T08:16:15;98917.00;;;13.61;100.00
64340;BME280;63709;53.258;-8.814;2024-03-25T08:18:42;98911.84;;;13.59;100.00
64340;BME280;63709;53.258;-8.814;2024-03-25T08:21:07;98924.03;;;13.47;100.00
64340;BME280;63709;53.258;-8.814;2024-03-25T08:23:32;98918.84;;;13.60;100.00
64340;BME280;63709;53.258;-8.814;2024-03-25T08:25:58;98912.56;;;13.53;100.00
64340;BME280;63709;53.258;-8.814;2024-03-25T08:28:23;98923.22;;;13.61;100.00
64340;BME280;63709;53.258;-8.814;2024-03-25T08:30:48;98926.34;;;13.50;100.00
64340;BME280;63709;53.258;-8.814;2024-03-25T08:33:13;98928.44;;;13.40;100.00
64340;BME280;63709;53.258;-8.814;2024-03-25T08:35:39;98932.00;;;13.70;100.00
64340;BME280;63709;53.258;-8.814;2024-03-25T08:38:04;98936.44;;;13.63;100.00
64340;BME280;63709;53.258;-8.814;2024-03-25T08:40:29;98939.34;;;13.53;100.00
64340;BME280;63709;53.258;-8.814;2024-03-25T08:42:55;98941.75;;;13.48;100.00
64340;BME280;63709;53.258;-8.814;2024-03-25T08:45:20;98930.44;;;13.38;100.00
64340;BME280;63709;53.258;-8.814;2024-03-25T08:47:45;98937.00;;;13.35;100.00
64340;BME280;63709;53.258;-8.814;2024-03-25T08:50:11;98942.91;;;13.22;100.00
64340;BME280;63709;53.258;-8.814;2024-03-25T08:52:36;98939.63;;;13.12;100.00
64340;BME280;63709;53.258;-8.814;2024-03-25T08:55:01;98939.13;;;13.17;100.00
64340;BME280;63709;53.258;-8.814;2024-03-25T08:57:27;98935.00;;;13.06;100.00
64340;BME280;63709;53.258;-8.814;2024-03-25T08:59:52;98932.72;;;13.26;100.00
64340;BME280;63709;53.258;-8.814;2024-03-25T09:02:17;98933.63;;;13.10;100.00
64340;BME280;63709;53.258;-8.814;2024-03-25T09:04:43;98930.72;;;13.20;100.00
64340;BME280;63709;53.258;-8.814;2024-03-25T09:07:09;98932.69;;;13.03;100.00
64340;BME280;63709;53.258;-8.814;2024-03-25T09:09:34;98930.06;;;13.18;100.00
64340;BME280;63709;53.258;-8.814;2024-03-25T09:12:18;98922.94;;;13.10;100.00
64340;BME280;63709;53.258;-8.814;2024-03-25T09:14:43;98914.22;;;13.08;100.00
64340;BME280;63709;53.258;-8.814;2024-03-25T09:17:08;98918.59;;;13.09;100.00
64340;BME280;63709;53.258;-8.814;2024-03-25T09:19:34;98918.34;;;12.96;100.00
64340;BME280;63709;53.258;-8.814;2024-03-25T09:21:59;98923.19;;;13.23;100.00
64340;BME280;63709;53.258;-8.814;2024-03-25T09:24:24;98925.28;;;13.36;100.00
64340;BME280;63709;53.258;-8.814;2024-03-25T09:26:50;98918.16;;;13.20;100.00
64340;BME280;63709;53.258;-8.814;2024-03-25T09:29:15;98914.97;;;13.25;100.00
64340;BME280;63709;53.258;-8.814;2024-03-25T09:31:41;98918.13;;;13.28;100.00
64340;BME280;63709;53.258;-8.814;2024-03-25T09:34:06;98928.03;;;13.28;100.00
64340;BME280;63709;53.258;-8.814;2024-03-25T09:36:31;98921.44;;;13.30;100.00
64340;BME280;63709;53.258;-8.814;2024-03-25T09:38:57;98930.06;;;13.18;100.00
64340;BME280;63709;53.258;-8.814;2024-03-25T09:41:22;98927.94;;;13.13;100.00
64340;BME280;63709;53.258;-8.814;2024-03-25T09:43:48;98913.66;;;13.21;100.00
64340;BME280;63709;53.258;-8.814;2024-03-25T09:46:15;98921.28;;;13.09;100.00
64340;BME280;63709;53.258;-8.814;2024-03-25T09:48:41;98921.28;;;13.09;100.00
64340;BME280;63709;53.258;-8.814;2024-03-25T09:51:07;98918.81;;;13.22;100.00
64340;BME280;63709;53.258;-8.814;2024-03-25T09:53:34;98930.56;;;13.21;100.00
64340;BME280;63709;53.258;-8.814;2024-03-25T09:55:59;98929.13;;;13.34;100.00
64340;BME280;63709;53.258;-8.814;2024-03-25T09:58:25;98926.78;;;13.39;100.00
64340;BME280;63709;53.258;-8.814;2024-03-25T10:00:50;98927.75;;;13.38;100.00
64340;BME280;63709;53.258;-8.814;2024-03-25T10:03:16;98926.78;;;13.39;100.00
64340;BME280;63709;53.258;-8.814;2024-03-25T10:05:41;98929.97;;;13.34;100.00
64340;BME280;63709;53.258;-8.814;2024-03-25T10:08:07;98933.16;;;13.52;100.00
64340;BME280;63709;53.258;-8.814;2024-03-25T10:10:35;98927.81;;;13.52;100.00
64340;BME280;63709;53.258;-8.814;2024-03-25T10:13:02;98919.00;;;13.44;100.00
64340;BME280;63709;53.258;-8.814;2024-03-25T10:15:28;98922.03;;;13.41;100.00
64340;BME280;63709;53.258;-8.814;2024-03-25T10:17:53;98923.75;;;13.11;100.00
64340;BME280;63709;53.258;-8.814;2024-03-25T10:20:19;98922.94;;;13.10;100.00
64340;BME280;63709;53.258;-8.814;2024-03-25T10:22:45;98928.31;;;13.33;100.00
64340;BME280;63709;53.258;-8.814;2024-03-25T10:30:20;98926.84;;;12.99;100.00
64340;BME280;63709;53.258;-8.814;2024-03-25T10:32:45;98934.13;;;13.14;100.00
64340;BME280;63709;53.258;-8.814;2024-03-25T10:35:11;98937.56;;;12.99;100.00
64340;BME280;63709;53.258;-8.814;2024-03-25T10:37:36;98935.91;;;12.98;100.00
64340;BME280;63709;53.258;-8.814;2024-03-25T10:40:01;98927.25;;;12.88;100.00
64340;BME280;63709;53.258;-8.814;2024-03-25T10:42:28;98932.56;;;12.65;100.00
64340;BME280;63709;53.258;-8.814;2024-03-25T10:44:55;98936.41;;;12.63;100.00
64340;BME280;63709;53.258;-8.814;2024-03-25T10:47:24;98926.38;;;12.65;100.00
64340;BME280;63709;53.258;-8.814;2024-03-25T10:49:57;98925.03;;;12.69;100.00
64340;BME280;63709;53.258;-8.814;2024-03-25T10:52:23;98930.59;;;12.59;100.00
64340;BME280;63709;53.258;-8.814;2024-03-25T10:54:49;98926.06;;;12.59;100.00
64340;BME280;63709;53.258;-8.814;2024-03-25T10:57:15;98927.72;;;12.60;100.00
64340;BME280;63709;53.258;-8.814;2024-03-25T10:59:44;98930.06;;;12.64;100.00
64340;BME280;63709;53.258;-8.814;2024-03-25T11:02:10;98922.50;;;12.67;100.00
64340;BME280;63709;53.258;-8.814;2024-03-25T11:04:36;98917.44;;;12.80;100.00
64340;BME280;63709;53.258;-8.814;2024-03-25T11:09:33;98913.16;;;12.94;100.00
64340;BME280;63709;53.258;-8.814;2024-03-25T11:11:58;98914.88;;;13.10;100.00
64340;BME280;63709;53.258;-8.814;2024-03-25T11:14:27;98909.81;;;13.15;100.00
64340;BME280;63709;53.258;-8.814;2024-03-25T11:16:53;98905.59;;;13.21;100.00
64340;BME280;63709;53.258;-8.814;2024-03-25T11:19:18;98904.75;;;13.28;100.00
64340;BME280;63709;53.258;-8.814;2024-03-25T11:21:44;98903.81;;;13.13;100.00
64340;BME280;63709;53.258;-8.814;2024-03-25T11:24:09;98910.84;;;13.14;100.00
64340;BME280;63709;53.258;-8.814;2024-03-25T11:26:39;98907.59;;;13.27;100.00
64340;BME280;63709;53.258;-8.814;2024-03-25T11:29:05;98900.34;;;13.36;100.00
64340;BME280;63709;53.258;-8.814;2024-03-25T11:31:30;98906.50;;;13.36;100.00
64340;BME280;63709;53.258;-8.814;2024-03-25T11:33:58;98910.69;;;13.39;100.00
64340;BME280;63709;53.258;-8.814;2024-03-25T11:36:28;98900.25;;;13.44;100.00
64340;BME280;63709;53.258;-8.814;2024-03-25T11:39:05;98896.91;;;13.65;100.00
64340;BME280;63709;53.258;-8.814;2024-03-25T11:41:34;98901.25;;;13.80;100.00
64340;BME280;63709;53.258;-8.814;2024-03-25T11:44:00;98903.63;;;13.75;100.00
64340;BME280;63709;53.258;-8.814;2024-03-25T11:46:26;98904.19;;;13.71;100.00
64340;BME280;63709;53.258;-8.814;2024-03-25T11:48:52;98913.06;;;13.86;100.00
64340;BME280;63709;53.258;-8.814;2024-03-25T11:51:17;98919.97;;;13.51;100.00
64340;BME280;63709;53.258;-8.814;2024-03-25T11:53:43;98911.09;;;13.50;100.00
64340;BME280;63709;53.258;-8.814;2024-03-25T11:56:09;98914.00;;;13.41;100.00
64340;BME280;63709;53.258;-8.814;2024-03-25T11:58:34;98903.28;;;13.18;100.00
64340;BME280;63709;53.258;-8.814;2024-03-25T12:00:59;98906.41;;;13.29;100.00
64340;BME280;63709;53.258;-8.814;2024-03-25T12:03:25;98912.00;;;13.43;100.00
64340;BME280;63709;53.258;-8.814;2024-03-25T12:05:50;98906.91;;;13.48;100.00
64340;BME280;63709;53.258;-8.814;2024-03-25T12:08:16;98903.75;;;13.44;100.00
64340;BME280;63709;53.258;-8.814;2024-03-25T12:10:42;98900.66;;;13.55;100.00
64340;BME280;63709;53.258;-8.814;2024-03-25T12:13:26;98906.38;;;13.52;100.00
64340;BME280;63709;53.258;-8.814;2024-03-25T12:15:52;98907.94;;;13.47;100.00
64340;BME280;63709;53.258;-8.814;2024-03-25T12:18:18;98913.81;;;13.65;100.00
64340;BME280;63709;53.258;-8.814;2024-03-25T12:20:46;98907.94;;;13.47;100.00
64340;BME280;63709;53.258;-8.814;2024-03-25T12:23:11;98910.72;;;13.53;100.00
64340;BME280;63709;53.258;-8.814;2024-03-25T12:25:37;98902.94;;;13.44;100.00
64340;BME280;63709;53.258;-8.814;2024-03-25T12:28:07;98881.69;;;13.57;100.00
64340;BME280;63709;53.258;-8.814;2024-03-25T12:30:33;98899.75;;;13.78;100.00
64340;BME280;63709;53.258;-8.814;2024-03-25T12:33:05;98891.13;;;13.53;100.00
64340;BME280;63709;53.258;-8.814;2024-03-25T12:35:31;98884.53;;;13.41;100.00
64340;BME280;63709;53.258;-8.814;2024-03-25T12:38:00;98889.47;;;13.52;100.00
64340;BME280;63709;53.258;-8.814;2024-03-25T12:40:26;98885.25;;;13.72;100.00